createdAt,value
2023-01-23T00:00:04.015Z,24.07
2023-01-23T00:00:14.032Z,24.06
2023-01-23T00:00:24.031Z,24.07
2023-01-23T00:00:34.079Z,24.06
2023-01-23T00:00:44.072Z,24.07
2023-01-23T00:00:54.079Z,24.06
2023-01-23T00:01:04.284Z,24.06
2023-01-23T00:01:14.293Z,24.06
2023-01-23T00:01:24.557Z,24.06
2023-01-23T00:01:34.577Z,24.06
2023-01-23T00:01:44.569Z,24.06
2023-01-23T00:01:54.584Z,24.06
2023-01-23T00:02:04.717Z,24.06
2023-01-23T00:02:14.618Z,24.06
2023-01-23T00:02:24.710Z,24.06
2023-01-23T00:02:34.746Z,24.06
2023-01-23T00:02:44.899Z,24.07
2023-01-23T00:02:54.819Z,24.07
2023-01-23T00:03:05.091Z,24.08
2023-01-23T00:03:15.108Z,24.08
2023-01-23T00:03:25.130Z,24.08
2023-01-23T00:03:35.145Z,24.08
2023-01-23T00:03:45.237Z,24.09
2023-01-23T00:03:55.218Z,24.09
2023-01-23T00:04:05.321Z,24.09
2023-01-23T00:04:15.293Z,24.09
2023-01-23T00:04:25.406Z,24.09
2023-01-23T00:04:35.416Z,24.10
2023-01-23T00:04:45.675Z,24.10
2023-01-23T00:04:55.683Z,24.11
2023-01-23T00:05:05.687Z,24.10
2023-01-23T00:05:15.690Z,24.10
2023-01-23T00:05:25.819Z,24.10
2023-01-23T00:05:35.823Z,24.10
2023-01-23T00:05:45.826Z,24.09
2023-01-23T00:05:55.831Z,24.08
2023-01-23T00:06:05.952Z,24.07
2023-01-23T00:06:15.965Z,24.02
2023-01-23T00:06:26.094Z,23.90
2023-01-23T00:06:36.095Z,23.83
2023-01-23T00:06:46.215Z,23.77
2023-01-23T00:06:56.494Z,23.72
2023-01-23T00:07:06.491Z,23.69
2023-01-23T00:07:16.623Z,23.66
2023-01-23T00:07:26.869Z,23.64
2023-01-23T00:07:36.984Z,23.63
2023-01-23T00:07:46.954Z,23.63
2023-01-23T00:07:56.987Z,23.63
2023-01-23T00:08:07.006Z,23.62
2023-01-23T00:08:17.039Z,23.63
2023-01-23T00:08:27.050Z,23.63
2023-01-23T00:08:37.055Z,23.64
2023-01-23T00:08:47.190Z,23.65
2023-01-23T00:08:57.196Z,23.66
2023-01-23T00:09:07.467Z,23.68
2023-01-23T00:09:17.468Z,23.69
2023-01-23T00:09:27.606Z,23.70
2023-01-23T00:09:37.864Z,23.71
2023-01-23T00:09:47.871Z,23.71
2023-01-23T00:09:57.872Z,23.71
2023-01-23T00:10:07.868Z,23.72
2023-01-23T00:10:18.081Z,23.72
2023-01-23T00:10:27.968Z,23.72
2023-01-23T00:10:37.974Z,23.73
2023-01-23T00:10:47.981Z,23.74
2023-01-23T00:10:57.992Z,23.75
2023-01-23T00:11:07.986Z,23.76
2023-01-23T00:11:17.985Z,23.76
2023-01-23T00:11:27.995Z,23.76
2023-01-23T00:11:37.995Z,23.77
2023-01-23T00:11:48.012Z,23.77
2023-01-23T00:11:58.033Z,23.78
2023-01-23T00:12:08.028Z,23.78
2023-01-23T00:12:18.035Z,23.78
2023-01-23T00:12:28.408Z,23.78
2023-01-23T00:12:38.412Z,23.78
2023-01-23T00:12:48.532Z,23.78
2023-01-23T00:12:58.802Z,23.79
2023-01-23T00:13:08.921Z,23.79
2023-01-23T00:13:18.935Z,23.80
2023-01-23T00:13:29.197Z,23.79
2023-01-23T00:13:39.197Z,23.80
2023-01-23T00:13:49.315Z,23.81
2023-01-23T00:13:59.572Z,23.80
2023-01-23T00:14:09.589Z,23.81
2023-01-23T00:14:19.597Z,23.80
2023-01-23T00:14:29.605Z,23.80
2023-01-23T00:14:39.628Z,23.81
2023-01-23T00:14:49.741Z,23.80
2023-01-23T00:14:59.743Z,23.81
2023-01-23T00:15:09.745Z,23.81
2023-01-23T00:15:19.757Z,23.81
2023-01-23T00:15:29.804Z,23.81
2023-01-23T00:15:40.107Z,23.81
2023-01-23T00:15:50.169Z,23.81
2023-01-23T00:16:00.366Z,23.81
2023-01-23T00:16:10.315Z,23.81
2023-01-23T00:16:20.345Z,23.80
2023-01-23T00:16:30.471Z,23.80
2023-01-23T00:16:40.485Z,23.79
2023-01-23T00:16:50.492Z,23.78
2023-01-23T00:17:00.495Z,23.79
2023-01-23T00:17:10.517Z,23.78
2023-01-23T00:17:20.770Z,23.79
2023-01-23T00:17:30.782Z,23.78
2023-01-23T00:17:40.793Z,23.78
2023-01-23T00:17:50.786Z,23.77
2023-01-23T00:18:00.802Z,23.78
2023-01-23T00:18:10.817Z,23.77
2023-01-23T00:18:20.808Z,23.78
2023-01-23T00:18:30.816Z,23.77
2023-01-23T00:18:40.856Z,23.76
2023-01-23T00:18:50.908Z,23.76
2023-01-23T00:19:00.908Z,23.76
2023-01-23T00:19:10.910Z,23.75
2023-01-23T00:19:20.904Z,23.74
2023-01-23T00:19:31.056Z,23.75
2023-01-23T00:19:41.047Z,23.75
2023-01-23T00:19:51.168Z,23.75
2023-01-23T00:20:01.171Z,23.75
2023-01-23T00:20:11.305Z,23.74
2023-01-23T00:20:21.578Z,23.74
2023-01-23T00:20:31.352Z,23.74
2023-01-23T00:20:41.345Z,23.73
2023-01-23T00:20:51.481Z,23.74
2023-01-23T00:21:01.488Z,23.74
2023-01-23T00:21:11.506Z,23.73
2023-01-23T00:21:21.510Z,23.74
2023-01-23T00:21:31.636Z,23.74
2023-01-23T00:21:41.640Z,23.73
2023-01-23T00:21:51.760Z,23.72
2023-01-23T00:22:01.763Z,23.72
2023-01-23T00:22:14.168Z,23.72
2023-01-23T00:22:21.772Z,23.70
2023-01-23T00:22:31.900Z,23.71
2023-01-23T00:22:42.274Z,23.70
2023-01-23T00:22:52.256Z,23.70
2023-01-23T00:23:02.315Z,23.70
2023-01-23T00:23:12.572Z,23.70
2023-01-23T00:23:22.576Z,23.70
2023-01-23T00:23:32.585Z,23.70
2023-01-23T00:23:42.603Z,23.69
2023-01-23T00:23:52.716Z,23.69
2023-01-23T00:24:02.741Z,23.69
2023-01-23T00:24:12.848Z,23.69
2023-01-23T00:24:22.858Z,23.70
2023-01-23T00:24:32.859Z,23.69
2023-01-23T00:24:42.868Z,23.68
2023-01-23T00:24:53.024Z,23.69
2023-01-23T00:25:03.025Z,23.68
2023-01-23T00:25:13.037Z,23.68
2023-01-23T00:25:23.031Z,23.68
2023-01-23T00:25:33.042Z,23.68
2023-01-23T00:25:43.045Z,23.68
2023-01-23T00:25:53.042Z,23.67
2023-01-23T00:26:03.155Z,23.68
2023-01-23T00:26:13.160Z,23.68
2023-01-23T00:26:23.297Z,23.68
2023-01-23T00:26:33.436Z,23.68
2023-01-23T00:26:43.429Z,23.67
2023-01-23T00:26:53.436Z,23.66
2023-01-23T00:27:03.444Z,23.67
2023-01-23T00:27:13.457Z,23.66
2023-01-23T00:27:23.477Z,23.65
2023-01-23T00:27:33.475Z,23.66
2023-01-23T00:27:43.488Z,23.66
2023-01-23T00:27:53.506Z,23.66
2023-01-23T00:28:03.555Z,23.66
2023-01-23T00:28:13.562Z,23.65
2023-01-23T00:28:23.562Z,23.66
2023-01-23T00:28:33.566Z,23.65
2023-01-23T00:28:43.570Z,23.65
2023-01-23T00:28:53.573Z,23.65
2023-01-23T00:29:03.576Z,23.64
2023-01-23T00:29:13.668Z,23.65
2023-01-23T00:29:24.038Z,23.64
2023-01-23T00:29:34.036Z,23.64
2023-01-23T00:29:44.052Z,23.63
2023-01-23T00:29:54.050Z,23.64
2023-01-23T00:30:04.051Z,23.63
2023-01-23T00:30:14.048Z,23.63
2023-01-23T00:30:24.147Z,23.63
2023-01-23T00:30:34.235Z,23.62
2023-01-23T00:30:44.170Z,23.63
2023-01-23T00:30:54.305Z,23.62
2023-01-23T00:31:04.314Z,23.61
2023-01-23T00:31:14.381Z,23.61
2023-01-23T00:31:24.494Z,23.61
2023-01-23T00:31:34.607Z,23.60
2023-01-23T00:31:44.772Z,23.60
2023-01-23T00:31:54.670Z,23.60
2023-01-23T00:32:04.751Z,23.60
2023-01-23T00:32:14.791Z,23.60
2023-01-23T00:32:24.791Z,23.59
2023-01-23T00:32:34.801Z,23.58
2023-01-23T00:32:44.800Z,23.58
2023-01-23T00:32:54.806Z,23.59
2023-01-23T00:33:04.840Z,23.58
2023-01-23T00:33:14.835Z,23.58
2023-01-23T00:33:24.841Z,23.59
2023-01-23T00:33:34.842Z,23.58
2023-01-23T00:33:44.964Z,23.59
2023-01-23T00:33:55.227Z,23.57
2023-01-23T00:34:05.228Z,23.58
2023-01-23T00:34:15.264Z,23.58
2023-01-23T00:34:25.272Z,23.58
2023-01-23T00:34:35.276Z,23.57
2023-01-23T00:34:45.402Z,23.57
2023-01-23T00:34:55.418Z,23.56
2023-01-23T00:35:05.424Z,23.56
2023-01-23T00:35:15.432Z,23.56
2023-01-23T00:35:25.567Z,23.56
2023-01-23T00:35:35.702Z,23.56
2023-01-23T00:35:45.700Z,23.55
2023-01-23T00:35:55.709Z,23.55
2023-01-23T00:36:05.707Z,23.55
2023-01-23T00:36:15.717Z,23.55
2023-01-23T00:36:25.713Z,23.54
2023-01-23T00:36:35.755Z,23.54
2023-01-23T00:36:45.752Z,23.54
2023-01-23T00:36:55.755Z,23.54
2023-01-23T00:37:05.772Z,23.55
2023-01-23T00:37:15.789Z,23.54
2023-01-23T00:37:25.805Z,23.53
2023-01-23T00:37:35.801Z,23.54
2023-01-23T00:37:46.105Z,23.53
2023-01-23T00:37:56.029Z,23.53
2023-01-23T00:38:06.060Z,23.54
2023-01-23T00:38:16.103Z,23.52
2023-01-23T00:38:26.358Z,23.52
2023-01-23T00:38:36.363Z,23.52
2023-01-23T00:38:46.483Z,23.52
2023-01-23T00:38:56.752Z,23.52
2023-01-23T00:39:06.918Z,23.51
2023-01-23T00:39:16.813Z,23.51
2023-01-23T00:39:26.804Z,23.51
2023-01-23T00:39:36.819Z,23.51
2023-01-23T00:39:46.930Z,23.51
2023-01-23T00:39:56.936Z,23.51
2023-01-23T00:40:07.067Z,23.51
2023-01-23T00:40:17.299Z,23.51
2023-01-23T00:40:27.081Z,23.50
2023-01-23T00:40:37.219Z,23.50
2023-01-23T00:40:47.222Z,23.50
2023-01-23T00:40:57.243Z,23.49
2023-01-23T00:41:07.244Z,23.49
2023-01-23T00:41:17.269Z,23.49
2023-01-23T00:41:27.262Z,23.49
2023-01-23T00:41:37.287Z,23.48
2023-01-23T00:41:47.306Z,23.48
2023-01-23T00:41:57.298Z,23.48
2023-01-23T00:42:07.407Z,23.48
2023-01-23T00:42:17.676Z,23.47
2023-01-23T00:42:27.696Z,23.47
2023-01-23T00:42:37.692Z,23.47
2023-01-23T00:42:47.714Z,23.47
2023-01-23T00:42:57.714Z,23.47
2023-01-23T00:43:07.830Z,23.46
2023-01-23T00:43:17.835Z,23.46
2023-01-23T00:43:27.958Z,23.46
2023-01-23T00:43:37.963Z,23.46
2023-01-23T00:43:48.084Z,23.45
2023-01-23T00:43:58.095Z,23.46
2023-01-23T00:44:08.095Z,23.46
2023-01-23T00:44:18.121Z,23.45
2023-01-23T00:44:28.143Z,23.46
2023-01-23T00:44:38.157Z,23.45
2023-01-23T00:44:48.162Z,23.45
2023-01-23T00:44:58.171Z,23.45
2023-01-23T00:45:08.183Z,23.44
2023-01-23T00:45:18.206Z,23.44
2023-01-23T00:45:28.215Z,23.45
2023-01-23T00:45:38.213Z,23.44
2023-01-23T00:45:48.227Z,23.44
2023-01-23T00:45:58.234Z,23.44
2023-01-23T00:46:08.312Z,23.43
2023-01-23T00:46:18.357Z,23.44
2023-01-23T00:46:28.421Z,23.43
2023-01-23T00:46:38.459Z,23.43
2023-01-23T00:46:48.550Z,23.43
2023-01-23T00:46:58.571Z,23.43
2023-01-23T00:47:08.688Z,23.43
2023-01-23T00:47:18.698Z,23.42
2023-01-23T00:47:28.714Z,23.42
2023-01-23T00:47:38.699Z,23.42
2023-01-23T00:47:48.821Z,23.42
2023-01-23T00:47:58.954Z,23.42
2023-01-23T00:48:08.957Z,23.41
2023-01-23T00:48:18.965Z,23.42
2023-01-23T00:48:28.987Z,23.41
2023-01-23T00:48:39.001Z,23.41
2023-01-23T00:48:49.100Z,23.41
2023-01-23T00:48:59.105Z,23.41
2023-01-23T00:49:09.228Z,23.41
2023-01-23T00:49:19.229Z,23.41
2023-01-23T00:49:29.238Z,23.41
2023-01-23T00:49:39.400Z,23.41
2023-01-23T00:49:49.399Z,23.41
2023-01-23T00:49:59.404Z,23.40
2023-01-23T00:50:09.413Z,23.40
2023-01-23T00:50:19.686Z,23.40
2023-01-23T00:50:29.496Z,23.39
2023-01-23T00:50:39.511Z,23.39
2023-01-23T00:50:49.603Z,23.40
2023-01-23T00:50:59.671Z,23.39
2023-01-23T00:51:09.744Z,23.39
2023-01-23T00:51:19.868Z,23.39
2023-01-23T00:51:29.764Z,23.39
2023-01-23T00:51:39.767Z,23.38
2023-01-23T00:51:49.780Z,23.40
2023-01-23T00:51:59.928Z,23.38
2023-01-23T00:52:09.942Z,23.39
2023-01-23T00:52:19.943Z,23.38
2023-01-23T00:52:29.945Z,23.38
2023-01-23T00:52:39.944Z,23.38
2023-01-23T00:52:50.063Z,23.38
2023-01-23T00:53:00.049Z,23.37
2023-01-23T00:53:10.070Z,23.37
2023-01-23T00:53:20.067Z,23.37
2023-01-23T00:53:30.087Z,23.37
2023-01-23T00:53:40.344Z,23.36
2023-01-23T00:53:50.359Z,23.36
2023-01-23T00:54:00.402Z,23.37
2023-01-23T00:54:10.398Z,23.36
2023-01-23T00:54:20.401Z,23.36
2023-01-23T00:54:30.523Z,23.35
2023-01-23T00:54:40.522Z,23.36
2023-01-23T00:54:50.646Z,23.35
2023-01-23T00:55:00.676Z,23.35
2023-01-23T00:55:10.652Z,23.35
2023-01-23T00:55:20.783Z,23.35
2023-01-23T00:55:30.799Z,23.35
2023-01-23T00:55:40.845Z,23.34
2023-01-23T00:55:50.841Z,23.34
2023-01-23T00:56:00.851Z,23.33
2023-01-23T00:56:10.839Z,23.33
2023-01-23T00:56:20.839Z,23.33
2023-01-23T00:56:30.964Z,23.33
2023-01-23T00:56:40.965Z,23.34
2023-01-23T00:56:50.978Z,23.34
2023-01-23T00:57:01.247Z,23.33
2023-01-23T00:57:11.376Z,23.32
2023-01-23T00:57:21.372Z,23.32
2023-01-23T00:57:31.624Z,23.32
2023-01-23T00:57:41.628Z,23.32
2023-01-23T00:57:51.657Z,23.32
2023-01-23T00:58:01.659Z,23.32
2023-01-23T00:58:11.718Z,23.31
2023-01-23T00:58:21.706Z,23.31
2023-01-23T00:58:31.826Z,23.31
2023-01-23T00:58:42.849Z,23.31
2023-01-23T00:58:51.948Z,23.30
2023-01-23T00:59:01.947Z,23.30
2023-01-23T00:59:11.950Z,23.30
2023-01-23T00:59:22.005Z,23.30
2023-01-23T00:59:32.025Z,23.30
2023-01-23T00:59:42.018Z,23.30
2023-01-23T00:59:52.274Z,23.30
2023-01-23T01:00:02.326Z,23.29
2023-01-23T01:00:12.316Z,23.30
2023-01-23T01:00:22.371Z,23.30
2023-01-23T01:00:32.356Z,23.30
2023-01-23T01:00:42.408Z,23.30
2023-01-23T01:00:52.404Z,23.30
2023-01-23T01:01:02.433Z,23.30
2023-01-23T01:01:12.441Z,23.29
2023-01-23T01:01:22.474Z,23.29
2023-01-23T01:01:32.556Z,23.29
2023-01-23T01:01:42.573Z,23.29
2023-01-23T01:01:52.580Z,23.29
2023-01-23T01:02:02.763Z,23.28
2023-01-23T01:02:12.658Z,23.28
2023-01-23T01:02:22.662Z,23.29
2023-01-23T01:02:32.748Z,23.28
2023-01-23T01:02:43.060Z,23.28
2023-01-23T01:02:53.117Z,23.27
2023-01-23T01:03:03.202Z,23.27
2023-01-23T01:03:13.268Z,23.27
2023-01-23T01:03:23.264Z,23.27
2023-01-23T01:03:33.270Z,23.27
2023-01-23T01:03:43.289Z,23.27
2023-01-23T01:03:53.303Z,23.27
2023-01-23T01:04:03.300Z,23.27
2023-01-23T01:04:13.314Z,23.27
2023-01-23T01:04:23.319Z,23.27
2023-01-23T01:04:33.443Z,23.27
2023-01-23T01:04:43.443Z,23.27
2023-01-23T01:04:53.487Z,23.27
2023-01-23T01:05:03.500Z,23.26
2023-01-23T01:05:13.628Z,23.26
2023-01-23T01:05:23.636Z,23.27
2023-01-23T01:05:33.770Z,23.27
2023-01-23T01:05:43.755Z,23.26
2023-01-23T01:05:53.764Z,23.26
2023-01-23T01:06:03.767Z,23.26
2023-01-23T01:06:13.778Z,23.25
2023-01-23T01:06:23.782Z,23.26
2023-01-23T01:06:33.784Z,23.26
2023-01-23T01:06:43.797Z,23.26
2023-01-23T01:06:53.923Z,23.25
2023-01-23T01:07:03.914Z,23.25
2023-01-23T01:07:14.179Z,23.25
2023-01-23T01:07:24.183Z,23.25
2023-01-23T01:07:34.302Z,23.24
2023-01-23T01:07:44.573Z,23.24
2023-01-23T01:07:54.703Z,23.24
2023-01-23T01:08:04.682Z,23.24
2023-01-23T01:08:14.951Z,23.24
2023-01-23T01:08:24.953Z,23.24
2023-01-23T01:08:34.963Z,23.23
2023-01-23T01:08:44.964Z,23.24
2023-01-23T01:08:54.971Z,23.23
2023-01-23T01:09:05.098Z,23.23
2023-01-23T01:09:15.107Z,23.23
2023-01-23T01:09:25.233Z,23.22
2023-01-23T01:09:35.230Z,23.22
2023-01-23T01:09:45.260Z,23.23
2023-01-23T01:09:55.388Z,23.22
2023-01-23T01:10:05.540Z,23.22
2023-01-23T01:10:15.542Z,23.22
2023-01-23T01:10:25.795Z,23.22
2023-01-23T01:10:35.803Z,23.22
2023-01-23T01:10:45.798Z,23.22
2023-01-23T01:10:55.808Z,23.22
2023-01-23T01:11:05.828Z,23.22
2023-01-23T01:11:15.833Z,23.22
2023-01-23T01:11:25.841Z,23.22
2023-01-23T01:11:35.852Z,23.22
2023-01-23T01:11:45.864Z,23.21
2023-01-23T01:11:55.863Z,23.21
2023-01-23T01:12:06.247Z,23.21
2023-01-23T01:12:16.259Z,23.21
2023-01-23T01:12:26.383Z,23.21
2023-01-23T01:12:36.642Z,23.21
2023-01-23T01:12:46.767Z,23.21
2023-01-23T01:12:56.772Z,23.21
2023-01-23T01:13:07.042Z,23.20
2023-01-23T01:13:17.075Z,23.20
2023-01-23T01:13:27.058Z,23.20
2023-01-23T01:13:37.076Z,23.20
2023-01-23T01:13:47.145Z,23.20
2023-01-23T01:13:57.145Z,23.19
2023-01-23T01:14:07.271Z,23.20
2023-01-23T01:14:17.280Z,23.19
2023-01-23T01:14:27.278Z,23.19
2023-01-23T01:14:37.286Z,23.19
2023-01-23T01:14:47.543Z,23.19
2023-01-23T01:14:57.547Z,23.19
2023-01-23T01:15:07.556Z,23.18
2023-01-23T01:15:17.567Z,23.18
2023-01-23T01:15:27.669Z,23.18
2023-01-23T01:15:37.676Z,23.18
2023-01-23T01:15:47.820Z,23.17
2023-01-23T01:15:57.841Z,23.18
2023-01-23T01:16:07.951Z,23.18
2023-01-23T01:16:17.937Z,23.17
2023-01-23T01:16:28.152Z,23.17
2023-01-23T01:16:38.141Z,23.17
2023-01-23T01:16:48.265Z,23.16
2023-01-23T01:16:58.528Z,23.17
2023-01-23T01:17:08.655Z,23.17
2023-01-23T01:17:18.661Z,23.17
2023-01-23T01:17:28.931Z,23.17
2023-01-23T01:17:38.954Z,23.17
2023-01-23T01:17:48.957Z,23.16
2023-01-23T01:17:58.963Z,23.17
2023-01-23T01:18:08.982Z,23.16
2023-01-23T01:18:18.981Z,23.16
2023-01-23T01:18:29.107Z,23.16
2023-01-23T01:18:39.114Z,23.16
2023-01-23T01:18:49.116Z,23.16
2023-01-23T01:18:59.120Z,23.16
2023-01-23T01:19:09.474Z,23.16
2023-01-23T01:19:19.474Z,23.16
2023-01-23T01:19:29.604Z,23.15
2023-01-23T01:19:39.753Z,23.15
2023-01-23T01:19:49.733Z,23.15
2023-01-23T01:19:59.747Z,23.16
2023-01-23T01:20:09.754Z,23.16
2023-01-23T01:20:20.055Z,23.15
2023-01-23T01:20:29.782Z,23.16
2023-01-23T01:20:39.790Z,23.15
2023-01-23T01:20:49.874Z,23.15
2023-01-23T01:20:59.868Z,23.16
2023-01-23T01:21:09.990Z,23.15
2023-01-23T01:21:20.258Z,23.15
2023-01-23T01:21:30.273Z,23.14
2023-01-23T01:21:40.279Z,23.15
2023-01-23T01:21:50.272Z,23.14
2023-01-23T01:22:00.289Z,23.15
2023-01-23T01:22:10.417Z,23.14
2023-01-23T01:22:20.423Z,23.14
2023-01-23T01:22:30.432Z,23.15
2023-01-23T01:22:40.438Z,23.15
2023-01-23T01:22:50.453Z,23.14
2023-01-23T01:23:00.828Z,23.14
2023-01-23T01:23:10.821Z,23.14
2023-01-23T01:23:20.825Z,23.14
2023-01-23T01:23:31.093Z,23.14
2023-01-23T01:23:41.102Z,23.14
2023-01-23T01:23:51.228Z,23.14
2023-01-23T01:24:01.483Z,23.13
2023-01-23T01:24:11.497Z,23.13
2023-01-23T01:24:21.496Z,23.13
2023-01-23T01:24:31.874Z,23.13
2023-01-23T01:24:41.873Z,23.13
2023-01-23T01:24:51.925Z,23.13
2023-01-23T01:25:01.962Z,23.14
2023-01-23T01:25:11.966Z,23.12
2023-01-23T01:25:21.973Z,23.13
2023-01-23T01:25:31.975Z,23.13
2023-01-23T01:25:41.981Z,23.13
2023-01-23T01:25:51.997Z,23.13
2023-01-23T01:26:02.014Z,23.13
2023-01-23T01:26:12.013Z,23.12
2023-01-23T01:26:22.019Z,23.13
2023-01-23T01:26:32.035Z,23.12
2023-01-23T01:26:42.037Z,23.12
2023-01-23T01:26:52.058Z,23.12
2023-01-23T01:27:02.074Z,23.11
2023-01-23T01:27:12.073Z,23.11
2023-01-23T01:27:22.091Z,23.12
2023-01-23T01:27:32.081Z,23.11
2023-01-23T01:27:42.082Z,23.11
2023-01-23T01:27:52.088Z,23.12
2023-01-23T01:28:02.103Z,23.11
2023-01-23T01:28:12.118Z,23.11
2023-01-23T01:28:22.117Z,23.11
2023-01-23T01:28:32.126Z,23.12
2023-01-23T01:28:42.198Z,23.11
2023-01-23T01:28:52.213Z,23.11
2023-01-23T01:29:02.216Z,23.11
2023-01-23T01:29:12.225Z,23.11
2023-01-23T01:29:22.234Z,23.11
2023-01-23T01:29:32.229Z,23.11
2023-01-23T01:29:42.227Z,23.10
2023-01-23T01:29:52.237Z,23.10
2023-01-23T01:30:02.251Z,23.11
2023-01-23T01:30:12.244Z,23.10
2023-01-23T01:30:22.628Z,23.11
2023-01-23T01:30:32.364Z,23.10
2023-01-23T01:30:42.386Z,23.11
2023-01-23T01:30:52.491Z,23.11
2023-01-23T01:31:02.543Z,23.10
2023-01-23T01:31:12.675Z,23.10
2023-01-23T01:31:22.658Z,23.10
2023-01-23T01:31:32.805Z,23.10
2023-01-23T01:31:42.648Z,23.09
2023-01-23T01:31:52.799Z,23.10
2023-01-23T01:32:02.764Z,23.10
2023-01-23T01:32:12.789Z,23.10
2023-01-23T01:32:22.790Z,23.09
2023-01-23T01:32:32.794Z,23.09
2023-01-23T01:32:42.798Z,23.09
2023-01-23T01:32:52.810Z,23.10
2023-01-23T01:33:02.810Z,23.09
2023-01-23T01:33:13.193Z,23.09
2023-01-23T01:33:23.193Z,23.09
2023-01-23T01:33:33.321Z,23.09
2023-01-23T01:33:43.574Z,23.09
2023-01-23T01:33:53.712Z,23.09
2023-01-23T01:34:03.716Z,23.08
2023-01-23T01:34:13.988Z,23.08
2023-01-23T01:34:23.984Z,23.08
2023-01-23T01:34:34.109Z,23.08
2023-01-23T01:34:44.385Z,23.08
2023-01-23T01:34:54.376Z,23.08
2023-01-23T01:35:04.374Z,23.09
2023-01-23T01:35:14.417Z,23.08
2023-01-23T01:35:24.428Z,23.08
2023-01-23T01:35:34.542Z,23.08
2023-01-23T01:35:44.554Z,23.08
2023-01-23T01:35:54.551Z,23.07
2023-01-23T01:36:04.547Z,23.07
2023-01-23T01:36:14.580Z,23.08
2023-01-23T01:36:24.834Z,23.08
2023-01-23T01:36:34.970Z,23.07
2023-01-23T01:36:44.976Z,23.07
2023-01-23T01:36:55.239Z,23.08
2023-01-23T01:37:05.243Z,23.07
2023-01-23T01:37:15.238Z,23.08
2023-01-23T01:37:25.249Z,23.07
2023-01-23T01:37:35.292Z,23.07
2023-01-23T01:37:45.296Z,23.06
2023-01-23T01:37:55.317Z,23.07
2023-01-23T01:38:05.430Z,23.07
2023-01-23T01:38:15.399Z,23.06
2023-01-23T01:38:25.397Z,23.06
2023-01-23T01:38:35.780Z,23.07
2023-01-23T01:38:45.798Z,23.06
2023-01-23T01:38:55.786Z,23.06
2023-01-23T01:39:05.804Z,23.06
2023-01-23T01:39:15.802Z,23.06
2023-01-23T01:39:25.803Z,23.05
2023-01-23T01:39:35.814Z,23.06
2023-01-23T01:39:45.824Z,23.05
2023-01-23T01:39:55.866Z,23.06
2023-01-23T01:40:05.877Z,23.05
2023-01-23T01:40:15.886Z,23.05
2023-01-23T01:40:25.895Z,23.05
2023-01-23T01:40:36.009Z,23.06
2023-01-23T01:40:46.044Z,23.05
2023-01-23T01:40:56.040Z,23.05
2023-01-23T01:41:06.046Z,23.05
2023-01-23T01:41:16.047Z,23.05
2023-01-23T01:41:26.312Z,23.05
2023-01-23T01:41:36.430Z,23.05
2023-01-23T01:41:46.434Z,23.05
2023-01-23T01:41:56.715Z,23.05
2023-01-23T01:42:06.718Z,23.05
2023-01-23T01:42:16.837Z,23.05
2023-01-23T01:42:27.097Z,23.06
2023-01-23T01:42:37.095Z,23.05
2023-01-23T01:42:47.175Z,23.05
2023-01-23T01:42:57.187Z,23.04
2023-01-23T01:43:07.183Z,23.04
2023-01-23T01:43:17.309Z,23.03
2023-01-23T01:43:27.301Z,23.03
2023-01-23T01:43:37.441Z,23.04
2023-01-23T01:43:47.451Z,23.04
2023-01-23T01:43:57.567Z,23.04
2023-01-23T01:44:07.572Z,23.03
2023-01-23T01:44:17.594Z,23.04
2023-01-23T01:44:27.593Z,23.04
2023-01-23T01:44:37.607Z,23.04
2023-01-23T01:44:47.616Z,23.03
2023-01-23T01:44:57.633Z,23.03
2023-01-23T01:45:07.632Z,23.03
2023-01-23T01:45:17.652Z,23.04
2023-01-23T01:45:27.652Z,23.02
2023-01-23T01:45:37.673Z,23.03
2023-01-23T01:45:47.691Z,23.03
2023-01-23T01:45:57.700Z,23.04
2023-01-23T01:46:07.717Z,23.03
2023-01-23T01:46:17.770Z,23.04
2023-01-23T01:46:27.849Z,23.04
2023-01-23T01:46:37.967Z,23.04
2023-01-23T01:46:47.964Z,23.02
2023-01-23T01:46:58.265Z,23.02
2023-01-23T01:47:08.242Z,23.02
2023-01-23T01:47:18.367Z,23.03
2023-01-23T01:47:28.642Z,23.02
2023-01-23T01:47:38.629Z,23.02
2023-01-23T01:47:48.628Z,23.03
2023-01-23T01:47:58.636Z,23.02
2023-01-23T01:48:08.645Z,23.03
2023-01-23T01:48:18.784Z,23.02
2023-01-23T01:48:28.791Z,23.02
2023-01-23T01:48:38.785Z,23.02
2023-01-23T01:48:48.796Z,23.02
2023-01-23T01:48:58.819Z,23.02
2023-01-23T01:49:09.090Z,23.02
2023-01-23T01:49:19.215Z,23.02
2023-01-23T01:49:29.230Z,23.02
2023-01-23T01:49:39.486Z,23.02
2023-01-23T01:49:49.486Z,23.02
2023-01-23T01:49:59.615Z,23.02
2023-01-23T01:50:12.244Z,23.01
2023-01-23T01:50:20.355Z,23.01
2023-01-23T01:50:29.995Z,23.00
2023-01-23T01:50:40.009Z,23.00
2023-01-23T01:50:50.061Z,23.00
2023-01-23T01:51:00.084Z,23.00
2023-01-23T01:51:10.271Z,23.00
2023-01-23T01:51:20.260Z,23.01
2023-01-23T01:51:30.266Z,23.01
2023-01-23T01:51:40.253Z,23.00
2023-01-23T01:51:50.646Z,23.00
2023-01-23T01:52:00.650Z,23.00
2023-01-23T01:52:10.660Z,23.01
2023-01-23T01:52:20.662Z,23.01
2023-01-23T01:52:30.677Z,23.01
2023-01-23T01:52:40.685Z,23.01
2023-01-23T01:52:50.689Z,23.00
2023-01-23T01:53:00.702Z,23.01
2023-01-23T01:53:10.863Z,23.01
2023-01-23T01:53:20.741Z,23.00
2023-01-23T01:53:30.745Z,23.00
2023-01-23T01:53:40.748Z,23.00
2023-01-23T01:53:50.757Z,23.01
2023-01-23T01:54:00.763Z,23.00
2023-01-23T01:54:10.770Z,23.01
2023-01-23T01:54:20.782Z,23.01
2023-01-23T01:54:30.802Z,23.00
2023-01-23T01:54:40.810Z,23.01
2023-01-23T01:54:50.824Z,23.01
2023-01-23T01:55:00.812Z,23.00
2023-01-23T01:55:10.940Z,23.01
2023-01-23T01:55:20.965Z,23.01
2023-01-23T01:55:30.972Z,23.01
2023-01-23T01:55:40.967Z,23.00
2023-01-23T01:55:51.229Z,23.01
2023-01-23T01:56:01.242Z,23.00
2023-01-23T01:56:11.763Z,23.01
2023-01-23T01:56:21.245Z,23.01
2023-01-23T01:56:31.254Z,23.01
2023-01-23T01:56:41.278Z,23.01
2023-01-23T01:56:51.273Z,23.02
2023-01-23T01:57:01.298Z,23.01
2023-01-23T01:57:11.282Z,23.00
2023-01-23T01:57:21.307Z,23.01
2023-01-23T01:57:31.318Z,23.01
2023-01-23T01:57:41.315Z,23.00
2023-01-23T01:57:51.322Z,23.01
2023-01-23T01:58:01.331Z,23.01
2023-01-23T01:58:11.345Z,23.01
2023-01-23T01:58:21.354Z,23.01
2023-01-23T01:58:31.384Z,23.01
2023-01-23T01:58:41.392Z,23.00
2023-01-23T01:58:51.404Z,23.00
2023-01-23T01:59:01.412Z,23.00
2023-01-23T01:59:11.413Z,23.01
2023-01-23T01:59:21.419Z,23.00
2023-01-23T01:59:31.542Z,23.00
2023-01-23T01:59:41.536Z,22.99
2023-01-23T01:59:51.807Z,23.00
2023-01-23T02:00:08.738Z,23.00
2023-01-23T02:00:11.910Z,22.91
2023-01-23T02:00:22.311Z,22.94
2023-01-23T02:00:31.984Z,22.95
2023-01-23T02:00:42.125Z,22.96
2023-01-23T02:00:52.138Z,22.96
2023-01-23T02:01:02.082Z,22.96
2023-01-23T02:01:12.126Z,22.96
2023-01-23T02:01:22.162Z,22.96
2023-01-23T02:01:32.201Z,22.96
2023-01-23T02:01:42.256Z,22.97
2023-01-23T02:01:52.358Z,22.97
2023-01-23T02:02:02.369Z,22.97
2023-01-23T02:02:12.491Z,22.97
2023-01-23T02:02:22.575Z,22.97
2023-01-23T02:02:32.721Z,22.97
2023-01-23T02:02:42.722Z,22.97
2023-01-23T02:02:52.734Z,22.97
2023-01-23T02:03:02.738Z,22.98
2023-01-23T02:03:12.742Z,22.97
2023-01-23T02:03:22.751Z,22.97
2023-01-23T02:03:32.755Z,22.97
2023-01-23T02:03:42.751Z,22.97
2023-01-23T02:03:52.752Z,22.97
2023-01-23T02:04:02.755Z,22.97
2023-01-23T02:04:12.764Z,22.98
2023-01-23T02:04:22.777Z,22.97
2023-01-23T02:04:32.798Z,22.97
2023-01-23T02:04:42.783Z,22.98
2023-01-23T02:04:52.906Z,22.97
2023-01-23T02:05:02.924Z,22.97
2023-01-23T02:05:12.932Z,22.97
2023-01-23T02:05:23.192Z,22.98
2023-01-23T02:05:33.322Z,22.96
2023-01-23T02:05:43.324Z,22.97
2023-01-23T02:05:53.585Z,22.96
2023-01-23T02:06:03.626Z,22.96
2023-01-23T02:06:13.620Z,22.97
2023-01-23T02:06:23.628Z,22.97
2023-01-23T02:06:33.635Z,22.97
2023-01-23T02:06:43.672Z,22.97
2023-01-23T02:06:53.660Z,22.97
2023-01-23T02:07:03.671Z,22.97
2023-01-23T02:07:13.791Z,22.97
2023-01-23T02:07:23.802Z,22.97
2023-01-23T02:07:34.049Z,22.96
2023-01-23T02:07:44.057Z,22.97
2023-01-23T02:07:54.170Z,22.96
2023-01-23T02:08:04.449Z,22.96
2023-01-23T02:08:14.563Z,22.97
2023-01-23T02:08:24.546Z,22.97
2023-01-23T02:08:34.802Z,22.96
2023-01-23T02:08:44.807Z,22.96
2023-01-23T02:08:54.926Z,22.97
2023-01-23T02:09:05.187Z,22.96
2023-01-23T02:09:15.200Z,22.96
2023-01-23T02:09:25.212Z,22.96